Time;durP1;ratioP1;P1;durP2;ratioP2;P2;SDS_P1;SDS_P2;PMS_P1;PMS_P2;Temp;Humidity;BMP_temperature;BMP_pressure;BME280_temperature;BME280_humidity;BME280_pressure;Samples;Min_cycle;Max_cycle;Signal;HPM_P1;HPM_P2
2021/06/26 00:01:45;;;;;;;8.47;7.67;;;20.10;1.00;;;;;;5071913;28;20714;-56
2021/06/26 00:04:12;;;;;;;8.87;7.70;;;20.20;1.00;;;;;;5071926;28;20233;-56
2021/06/26 00:06:37;;;;;;;8.73;7.90;;;20.40;1.00;;;;;;5070324;28;20271;-56
2021/06/26 00:09:04;;;;;;;7.53;6.83;;;20.30;1.00;;;;;;5071535;28;20882;-55
2021/06/26 00:11:29;;;;;;;8.40;7.60;;;20.30;1.00;;;;;;5071827;28;20194;-56
2021/06/26 00:13:55;;;;;;;9.07;8.17;;;20.20;1.00;;;;;;5070202;28;20450;-56
2021/06/26 00:16:20;;;;;;;8.47;7.73;;;20.20;1.00;;;;;;5071456;28;20185;-56
2021/06/26 00:18:46;;;;;;;9.70;8.07;;;20.20;1.00;;;;;;5071282;28;20187;-56
2021/06/26 00:21:12;;;;;;;7.70;7.00;;;20.20;1.00;;;;;;5071138;28;20187;-55
2021/06/26 00:23:37;;;;;;;8.53;7.43;;;20.20;1.00;;;;;;5071219;28;20265;-56
2021/06/26 00:26:03;;;;;;;9.00;8.13;;;20.10;1.00;;;;;;5071500;28;20190;-56
2021/06/26 00:28:28;;;;;;;8.13;7.43;;;20.00;1.00;;;;;;5071095;28;20181;-56
2021/06/26 00:30:54;;;;;;;8.90;8.10;;;22.50;1.00;;;;;;5071572;28;20240;-56
2021/06/26 00:33:19;;;;;;;8.60;7.80;;;19.90;1.00;;;;;;5070784;28;20183;-57
2021/06/26 00:35:45;;;;;;;10.17;7.33;;;19.90;1.00;;;;;;5070279;28;20174;-56
2021/06/26 00:38:11;;;;;;;8.83;7.80;;;20.00;1.00;;;;;;5069827;28;20180;-56
2021/06/26 00:40:36;;;;;;;7.20;6.50;;;20.10;1.00;;;;;;5071394;28;20185;-55
2021/06/26 00:43:02;;;;;;;9.80;8.07;;;20.10;1.00;;;;;;5071380;28;20190;-56
2021/06/26 00:45:28;;;;;;;14.00;8.00;;;20.00;1.00;;;;;;5071306;28;20204;-56
2021/06/26 00:47:53;;;;;;;7.80;6.90;;;20.00;1.00;;;;;;5071129;28;20442;-56
2021/06/26 00:50:22;;;;;;;8.00;7.20;;;20.00;1.00;;;;;;5071021;28;20188;-55
2021/06/26 00:52:48;;;;;;;8.50;7.80;;;20.00;1.00;;;;;;5070551;28;20591;-56
2021/06/26 00:55:15;;;;;;;9.13;7.43;;;19.90;1.00;;;;;;5070536;28;20465;-56
2021/06/26 00:57:54;;;;;;;9.50;6.90;;;20.00;1.00;;;;;;5070175;28;20477;-57
2021/06/26 01:00:20;;;;;;;9.63;8.47;;;20.10;1.00;;;;;;5068971;28;20473;-55
2021/06/26 01:02:46;;;;;;;7.97;7.17;;;20.10;1.00;;;;;;5070783;28;20441;-57
2021/06/26 01:05:12;;;;;;;9.20;7.23;;;20.20;1.00;;;;;;5069217;28;20461;-55
2021/06/26 01:07:38;;;;;;;8.43;7.73;;;20.20;1.00;;;;;;5070848;28;20175;-55
2021/06/26 01:10:06;;;;;;;8.00;7.30;;;20.20;1.00;;;;;;5070322;28;20529;-55
2021/06/26 01:12:31;;;;;;;9.40;7.83;;;20.10;1.00;;;;;;5070836;28;20617;-57
2021/06/26 01:14:57;;;;;;;9.03;7.43;;;20.10;1.00;;;;;;5070703;28;20530;-56
2021/06/26 01:17:22;;;;;;;8.17;7.37;;;20.10;1.00;;;;;;5070659;28;20191;-56
2021/06/26 01:19:48;;;;;;;7.57;6.87;;;20.20;1.00;;;;;;5070480;28;20608;-54
2021/06/26 01:22:20;;;;;;;8.83;7.87;;;20.20;1.00;;;;;;5070364;28;20214;-55
2021/06/26 01:24:46;;;;;;;8.10;7.40;;;20.20;1.00;;;;;;5069320;28;20797;-57
2021/06/26 01:27:11;;;;;;;10.33;7.57;;;20.20;1.00;;;;;;5070412;28;20510;-55
2021/06/26 01:29:37;;;;;;;6.70;6.00;;;20.20;1.00;;;;;;5070356;28;20229;-56
2021/06/26 01:32:05;;;;;;;8.30;7.50;;;20.20;1.00;;;;;;5070361;28;20205;-55
2021/06/26 01:34:31;;;;;;;8.73;7.40;;;20.20;1.00;;;;;;5068133;28;20190;-56
2021/06/26 01:36:56;;;;;;;8.47;7.67;;;20.20;1.00;;;;;;5069660;28;20474;-56
2021/06/26 01:39:22;;;;;;;7.90;7.20;;;20.20;1.00;;;;;;5070166;28;20660;-56
2021/06/26 01:41:47;;;;;;;9.77;7.33;;;20.20;1.00;;;;;;5070349;28;20183;-56
2021/06/26 01:44:14;;;;;;;8.50;7.37;;;20.10;1.00;;;;;;5069701;28;20203;-55
2021/06/26 01:46:40;;;;;;;7.93;7.23;;;20.10;1.00;;;;;;5070178;28;20182;-56
2021/06/26 01:49:13;;;;;;;10.23;7.27;;;20.00;1.00;;;;;;5070310;28;20548;-55
2021/06/26 01:51:39;;;;;;;8.43;7.73;;;20.00;1.00;;;;;;5067942;28;20195;-55
2021/06/26 01:54:06;;;;;;;8.20;7.50;;;20.10;1.00;;;;;;5070192;28;20439;-57
2021/06/26 01:56:32;;;;;;;10.47;8.40;;;20.10;1.00;;;;;;5068011;28;20503;-56
2021/06/26 01:58:58;;;;;;;9.03;8.00;;;20.20;1.00;;;;;;5070142;28;20412;-57
2021/06/26 02:01:24;;;;;;;9.00;8.30;;;20.20;1.00;;;;;;5070480;28;20445;-56
2021/06/26 02:03:49;;;;;;;9.90;8.03;;;20.20;1.00;;;;;;5070192;28;20438;-56
2021/06/26 02:06:15;;;;;;;8.73;7.73;;;20.20;1.00;;;;;;5069730;28;20202;-56
2021/06/26 02:08:40;;;;;;;19.07;9.00;;;20.20;1.00;;;;;;5070021;28;20234;-55
2021/06/26 02:11:06;;;;;;;10.50;9.40;;;20.20;1.00;;;;;;5070336;28;20262;-55
2021/06/26 02:13:32;;;;;;;8.73;7.90;;;20.20;1.00;;;;;;5070349;28;20190;-55
2021/06/26 02:15:57;;;;;;;8.17;7.20;;;20.20;1.00;;;;;;5070100;28;20191;-58
2021/06/26 02:18:23;;;;;;;8.53;7.93;;;20.20;1.00;;;;;;5069953;28;20854;-56
2021/06/26 02:20:48;;;;;;;9.70;8.00;;;20.20;1.00;;;;;;5072415;28;20175;-56
2021/06/26 02:23:14;;;;;;;9.50;8.73;;;20.20;1.00;;;;;;5073670;28;20188;-57
2021/06/26 02:25:40;;;;;;;8.40;7.60;;;20.20;1.00;;;;;;5072914;28;20270;-55
2021/06/26 02:28:05;;;;;;;8.17;6.87;;;20.20;1.00;;;;;;5073402;28;20179;-55
2021/06/26 02:30:31;;;;;;;8.53;6.90;;;20.10;1.00;;;;;;5073077;28;20781;-55
2021/06/26 02:32:56;;;;;;;8.63;7.27;;;20.10;1.00;;;;;;5073721;28;20179;-57
2021/06/26 02:35:22;;;;;;;7.70;6.90;;;20.30;1.00;;;;;;5073010;28;20191;-55
2021/06/26 02:37:48;;;;;;;9.70;6.83;;;20.30;1.00;;;;;;5073315;28;20191;-55
2021/06/26 02:40:13;;;;;;;9.40;6.70;;;20.30;1.00;;;;;;5073239;28;20189;-55
2021/06/26 02:42:39;;;;;;;7.23;6.10;;;20.30;1.00;;;;;;5073493;28;20190;-57
2021/06/26 02:45:05;;;;;;;6.83;6.20;;;20.30;1.00;;;;;;5073236;28;20199;-57
2021/06/26 02:47:31;;;;;;;6.70;6.10;;;20.30;1.00;;;;;;5073150;28;20184;-55
2021/06/26 02:49:56;;;;;;;8.90;6.53;;;20.30;1.00;;;;;;5071839;28;20445;-56
2021/06/26 02:52:23;;;;;;;6.80;6.20;;;20.30;1.00;;;;;;5072854;28;20176;-56
2021/06/26 02:54:49;;;;;;;8.53;6.50;;;20.20;1.00;;;;;;5072869;28;20180;-56
2021/06/26 02:57:15;;;;;;;7.20;6.50;;;20.20;1.00;;;;;;5073364;28;20783;-56
2021/06/26 02:59:41;;;;;;;9.23;7.30;;;20.10;1.00;;;;;;5072605;28;20438;-57
2021/06/26 03:02:06;;;;;;;9.47;8.47;;;20.20;1.00;;;;;;5073142;28;20179;-56
2021/06/26 03:04:32;;;;;;;8.87;8.07;;;20.20;1.00;;;;;;5072734;28;20601;-56
2021/06/26 03:06:57;;;;;;;9.63;8.50;;;20.20;1.00;;;;;;5072934;28;20280;-56
2021/06/26 03:09:23;;;;;;;8.83;8.03;;;20.10;1.00;;;;;;5072989;28;20175;-56
2021/06/26 03:11:49;;;;;;;10.90;8.07;;;20.20;1.00;;;;;;5072576;28;20258;-57
2021/06/26 03:14:14;;;;;;;8.73;7.83;;;20.20;1.00;;;;;;5072753;28;20187;-56
2021/06/26 03:16:40;;;;;;;8.70;7.80;;;20.10;1.00;;;;;;5072397;28;20261;-56
2021/06/26 03:19:05;;;;;;;9.30;8.40;;;20.10;1.00;;;;;;5072036;28;20540;-56
2021/06/26 03:21:31;;;;;;;10.20;9.20;;;20.10;1.00;;;;;;5072213;28;20255;-56
2021/06/26 03:23:57;;;;;;;10.70;9.40;;;20.10;1.00;;;;;;5071904;28;20198;-56
2021/06/26 03:26:22;;;;;;;11.47;8.37;;;20.10;1.00;;;;;;5072409;28;20720;-55
2021/06/26 03:28:49;;;;;;;9.90;7.83;;;20.10;1.00;;;;;;5072175;28;20215;-57
2021/06/26 03:31:15;;;;;;;8.10;7.30;;;20.10;1.00;;;;;;5071136;28;20203;-55
2021/06/26 03:33:40;;;;;;;7.63;6.90;;;20.10;1.00;;;;;;5072100;28;20469;-55
2021/06/26 03:36:06;;;;;;;8.67;7.30;;;20.10;1.00;;;;;;5071332;28;20579;-56
2021/06/26 03:38:32;;;;;;;7.87;7.07;;;20.10;1.00;;;;;;5071995;28;20191;-55
2021/06/26 03:40:57;;;;;;;7.07;6.37;;;20.10;1.00;;;;;;5072026;28;20245;-56
2021/06/26 03:43:23;;;;;;;7.57;6.87;;;20.20;1.00;;;;;;5072153;28;20183;-56
2021/06/26 03:45:49;;;;;;;7.57;6.87;;;20.20;1.00;;;;;;5071068;28;20237;-56
2021/06/26 03:48:15;;;;;;;7.60;6.67;;;20.30;1.00;;;;;;5072019;28;20195;-56
2021/06/26 03:50:41;;;;;;;9.00;7.30;;;20.20;1.00;;;;;;5072489;28;20459;-56
2021/06/26 03:53:07;;;;;;;7.40;6.77;;;20.30;1.00;;;;;;5070581;28;20443;-56
2021/06/26 03:55:33;;;;;;;8.13;7.07;;;20.30;1.00;;;;;;5071975;28;20189;-56
2021/06/26 03:57:58;;;;;;;8.23;6.93;;;20.30;1.00;;;;;;5070296;28;20274;-56
2021/06/26 04:00:24;;;;;;;7.43;6.73;;;20.20;1.00;;;;;;5071643;28;20452;-55
2021/06/26 04:02:49;;;;;;;9.03;6.93;;;20.30;1.00;;;;;;5071947;28;20219;-55
2021/06/26 04:05:15;;;;;;;7.20;6.50;;;20.20;1.00;;;;;;5069979;28;20195;-57
2021/06/26 04:07:41;;;;;;;7.60;6.80;;;20.30;1.00;;;;;;5071950;28;20541;-55
2021/06/26 04:10:08;;;;;;;8.23;7.40;;;20.30;1.00;;;;;;5071699;28;20286;-56
2021/06/26 04:12:33;;;;;;;8.40;7.60;;;20.30;1.00;;;;;;5071698;28;20179;-56
2021/06/26 04:14:59;;;;;;;7.60;7.00;;;20.30;1.00;;;;;;5071827;28;20965;-57
2021/06/26 04:17:25;;;;;;;6.63;6.00;;;20.30;1.00;;;;;;5071500;28;20553;-56
2021/06/26 04:19:50;;;;;;;7.83;6.97;;;20.30;1.00;;;;;;5071324;28;20259;-56
2021/06/26 04:22:16;;;;;;;11.40;6.80;;;21.20;1.00;;;;;;5071463;28;20231;-57
2021/06/26 04:24:41;;;;;;;7.70;6.90;;;20.30;1.00;;;;;;5071427;28;20712;-56
2021/06/26 04:27:07;;;;;;;9.80;6.83;;;20.30;1.00;;;;;;5071057;28;20545;-57
2021/06/26 04:29:33;;;;;;;7.80;7.00;;;20.30;1.00;;;;;;5071156;28;20215;-56
2021/06/26 04:31:59;;;;;;;10.47;7.13;;;20.40;1.00;;;;;;5071504;28;20257;-56
2021/06/26 04:34:24;;;;;;;7.37;6.60;;;20.40;1.00;;;;;;5070968;28;20213;-56
2021/06/26 04:36:51;;;;;;;9.40;6.47;;;20.50;1.00;;;;;;5070557;28;20962;-56
2021/06/26 04:39:17;;;;;;;7.60;6.47;;;20.50;1.00;;;;;;5070707;28;20176;-58
2021/06/26 04:41:43;;;;;;;8.10;7.00;;;20.60;1.00;;;;;;5070895;28;20451;-55
2021/06/26 04:44:09;;;;;;;7.30;6.60;;;20.70;1.00;;;;;;5070169;28;20469;-54
2021/06/26 04:46:35;;;;;;;8.60;6.87;;;20.80;1.00;;;;;;5071334;28;20549;-56
2021/06/26 04:49:01;;;;;;;8.47;7.27;;;20.70;1.00;;;;;;5071044;28;20183;-55
2021/06/26 04:51:27;;;;;;;8.60;7.33;;;20.70;1.00;;;;;;5069545;28;20451;-56
2021/06/26 04:53:53;;;;;;;8.80;7.07;;;20.70;1.00;;;;;;5070605;28;20919;-58
2021/06/26 04:56:18;;;;;;;12.33;7.60;;;20.60;1.00;;;;;;5070530;28;20211;-56
2021/06/26 04:58:44;;;;;;;9.20;7.40;;;20.60;1.00;;;;;;5070418;28;20633;-56
2021/06/26 05:01:09;;;;;;;7.50;6.80;;;20.60;1.00;;;;;;5070467;28;20189;-56
2021/06/26 05:03:35;;;;;;;8.23;6.93;;;20.60;1.00;;;;;;5070555;28;20195;-56
2021/06/26 05:06:01;;;;;;;8.70;7.90;;;20.60;1.00;;;;;;5070202;28;20266;-56
2021/06/26 05:08:27;;;;;;;7.67;6.80;;;20.70;1.00;;;;;;5070481;28;20549;-55
2021/06/26 05:10:52;;;;;;;8.07;6.60;;;20.70;1.00;;;;;;5070451;28;20669;-56
2021/06/26 05:13:18;;;;;;;8.17;7.30;;;20.70;1.00;;;;;;5070787;28;20480;-56
2021/06/26 05:15:44;;;;;;;9.47;8.47;;;20.80;1.00;;;;;;5070465;28;20220;-56
2021/06/26 05:18:10;;;;;;;8.40;7.50;;;20.80;1.00;;;;;;5069715;28;20659;-55
2021/06/26 05:20:37;;;;;;;9.57;7.10;;;21.50;1.00;;;;;;5070402;28;20567;-61
2021/06/26 05:23:17;;;;;;;8.27;7.40;;;21.00;1.00;;;;;;5070087;28;20454;-56
2021/06/26 05:25:43;;;;;;;8.57;7.67;;;21.00;1.00;;;;;;5069422;28;20460;-56
2021/06/26 05:28:10;;;;;;;7.80;7.00;;;21.00;1.00;;;;;;5069307;28;20507;-56
2021/06/26 05:30:37;;;;;;;7.07;6.43;;;21.20;1.00;;;;;;5070413;28;20522;-57
2021/06/26 05:33:02;;;;;;;9.30;8.10;;;21.30;1.00;;;;;;5069159;28;20890;-56
2021/06/26 05:35:28;;;;;;;8.50;7.60;;;21.20;1.00;;;;;;5070138;28;20451;-57
2021/06/26 05:37:53;;;;;;;10.87;8.00;;;21.30;1.00;;;;;;5070044;28;20191;-56
2021/06/26 05:40:19;;;;;;;8.93;8.07;;;21.40;1.00;;;;;;5069980;28;20270;-57
2021/06/26 05:42:45;;;;;;;9.40;8.00;;;21.30;1.00;;;;;;5070389;28;20660;-56
2021/06/26 05:45:10;;;;;;;9.70;8.10;;;21.10;1.00;;;;;;5069853;28;20198;-57
2021/06/26 05:47:36;;;;;;;9.20;8.30;;;21.00;1.00;;;;;;5069673;28;20187;-56
2021/06/26 05:50:01;;;;;;;8.90;7.90;;;20.90;1.00;;;;;;5070136;28;20754;-57
2021/06/26 05:52:27;;;;;;;11.83;9.13;;;20.70;1.00;;;;;;5070304;28;20657;-56
2021/06/26 05:54:52;;;;;;;11.20;8.43;;;20.80;1.00;;;;;;5071180;28;20190;-56
2021/06/26 05:57:19;;;;;;;8.77;7.87;;;20.90;1.00;;;;;;5074313;28;20186;-57
2021/06/26 05:59:44;;;;;;;8.73;7.93;;;20.90;1.00;;;;;;5073069;28;20189;-56
2021/06/26 06:02:13;;;;;;;10.40;7.80;;;21.00;1.00;;;;;;5072920;28;20441;-56
2021/06/26 06:04:40;;;;;;;9.03;8.00;;;20.90;1.00;;;;;;5074194;28;20245;-55
2021/06/26 06:07:07;;;;;;;9.73;8.70;;;21.00;1.00;;;;;;5074110;28;20491;-57
2021/06/26 06:09:32;;;;;;;8.40;7.50;;;21.00;1.00;;;;;;5071613;28;20908;-56
2021/06/26 06:11:58;;;;;;;10.23;8.40;;;21.10;1.00;;;;;;5074138;28;20441;-56
2021/06/26 06:14:24;;;;;;;9.80;8.27;;;21.20;1.00;;;;;;5073143;28;20667;-56
2021/06/26 06:16:49;;;;;;;11.00;9.90;;;21.30;1.00;;;;;;5072862;28;20187;-55
2021/06/26 06:19:15;;;;;;;11.60;9.13;;;21.40;1.00;;;;;;5074083;28;20181;-56
2021/06/26 06:21:41;;;;;;;11.50;9.67;;;21.70;1.00;;;;;;5073833;28;20248;-57
2021/06/26 06:24:06;;;;;;;12.60;11.50;;;21.90;1.00;;;;;;5073463;28;20215;-57
2021/06/26 06:26:32;;;;;;;14.10;12.37;;;22.00;1.00;;;;;;5073945;28;20183;-57
2021/06/26 06:28:57;;;;;;;12.07;10.83;;;22.00;1.00;;;;;;5073322;28;20211;-56
2021/06/26 06:31:23;;;;;;;18.20;16.33;;;22.10;1.00;;;;;;5072848;28;20207;-59
2021/06/26 06:33:49;;;;;;;18.57;16.60;;;22.30;1.00;;;;;;5072218;28;20261;-59
2021/06/26 06:36:14;;;;;;;18.13;16.03;;;22.40;1.00;;;;;;5072546;28;20647;-57
2021/06/26 06:38:40;;;;;;;14.53;13.00;;;22.40;1.00;;;;;;5072440;28;20660;-58
2021/06/26 06:41:05;;;;;;;14.80;13.40;;;22.20;1.00;;;;;;5072890;28;20175;-58
2021/06/26 06:43:31;;;;;;;17.20;13.13;;;22.30;1.00;;;;;;5072066;28;20202;-56
2021/06/26 06:45:56;;;;;;;14.57;13.03;;;22.40;1.00;;;;;;5072015;28;20183;-57
2021/06/26 06:48:22;;;;;;;16.23;14.63;;;22.50;1.00;;;;;;5072701;28;20187;-58
2021/06/26 06:50:47;;;;;;;16.30;14.67;;;22.80;1.00;;;;;;5072056;28;20194;-56
2021/06/26 06:53:13;;;;;;;24.83;13.60;;;23.10;1.00;;;;;;5072268;28;20192;-58
2021/06/26 06:55:39;;;;;;;14.53;13.10;;;23.10;1.00;;;;;;5071981;28;20241;-57
2021/06/26 06:58:04;;;;;;;13.90;12.50;;;23.30;1.00;;;;;;5072352;28;20188;-58
2021/06/26 07:00:30;;;;;;;14.57;13.17;;;23.30;1.00;;;;;;5070794;28;20353;-58
2021/06/26 07:02:55;;;;;;;14.73;13.43;;;23.70;1.00;;;;;;5072235;28;20207;-58
2021/06/26 07:05:21;;;;;;;15.00;13.13;;;23.70;1.00;;;;;;5071641;28;20215;-58
2021/06/26 07:07:46;;;;;;;14.53;13.07;;;23.80;1.00;;;;;;5071282;28;20222;-59
2021/06/26 07:10:12;;;;;;;14.30;12.10;;;24.00;1.00;;;;;;5071805;28;20191;-58
2021/06/26 07:12:38;;;;;;;14.23;12.73;;;24.10;1.00;;;;;;5071916;28;20184;-59
2021/06/26 07:15:05;;;;;;;14.47;13.20;;;24.20;1.00;;;;;;5071717;28;20184;-57
2021/06/26 07:17:30;;;;;;;13.77;12.50;;;24.30;1.00;;;;;;5071489;28;20191;-57
2021/06/26 07:19:56;;;;;;;11.30;10.30;;;24.40;1.00;;;;;;5072215;28;20810;-57
2021/06/26 07:22:21;;;;;;;13.47;12.13;;;24.50;1.00;;;;;;5071681;28;20529;-57
2021/06/26 07:24:47;;;;;;;13.20;11.90;;;24.70;1.00;;;;;;5071751;28;20203;-58
2021/06/26 07:27:12;;;;;;;12.97;10.70;;;24.70;1.00;;;;;;5071291;28;20190;-59
2021/06/26 07:29:38;;;;;;;13.20;11.87;;;24.70;1.00;;;;;;5071371;28;20230;-58
2021/06/26 07:32:04;;;;;;;13.70;12.47;;;24.90;1.00;;;;;;5071247;28;20175;-58
2021/06/26 07:34:30;;;;;;;13.13;11.80;;;25.00;1.00;;;;;;5070698;28;20259;-59
2021/06/26 07:36:55;;;;;;;14.70;12.30;;;25.20;1.00;;;;;;5071745;28;20548;-58
2021/06/26 07:39:21;;;;;;;12.63;11.33;;;25.30;1.00;;;;;;5071149;28;20646;-59
2021/06/26 07:41:47;;;;;;;12.80;11.67;;;25.30;1.00;;;;;;5102505;28;20661;-57
2021/06/26 07:44:12;;;;;;;12.00;10.80;;;25.40;1.00;;;;;;5070866;28;20652;-58
2021/06/26 07:46:39;;;;;;;11.33;10.37;;;25.50;1.00;;;;;;5071560;28;20200;-58
2021/06/26 07:49:04;;;;;;;11.00;10.10;;;25.60;1.00;;;;;;5070426;28;20180;-58
2021/06/26 07:51:30;;;;;;;12.33;11.07;;;25.90;1.00;;;;;;5071196;28;20769;-58
2021/06/26 07:53:55;;;;;;;11.93;10.93;;;26.20;1.00;;;;;;5070856;28;20594;-57
2021/06/26 07:56:21;;;;;;;11.77;10.57;;;26.10;1.00;;;;;;5071134;28;20637;-57
2021/06/26 07:58:46;;;;;;;11.03;9.93;;;26.20;1.00;;;;;;5071023;28;20278;-58
2021/06/26 08:01:14;;;;;;;11.13;10.23;;;26.30;1.00;;;;;;5070717;28;20187;-58
2021/06/26 08:03:39;;;;;;;10.67;9.67;;;26.20;1.00;;;;;;5071040;28;20191;-57
2021/06/26 08:06:05;;;;;;;10.70;9.80;;;26.40;1.00;;;;;;5070594;28;20420;-57
2021/06/26 08:08:30;;;;;;;10.13;9.13;;;26.50;1.00;;;;;;5070022;28;20197;-57
2021/06/26 08:10:56;;;;;;;12.60;11.10;;;26.50;1.00;;;;;;5070551;28;20229;-57
2021/06/26 08:13:23;;;;;;;11.73;10.57;;;26.30;1.00;;;;;;5070995;28;20195;-57
2021/06/26 08:15:49;;;;;;;11.27;10.27;;;25.60;1.00;;;;;;5071058;28;20171;-58
2021/06/26 08:18:15;;;;;;;12.17;11.00;;;25.30;1.00;;;;;;5070656;28;20962;-58
2021/06/26 08:20:41;;;;;;;12.20;11.20;;;25.10;1.00;;;;;;5071166;28;20195;-56
2021/06/26 08:23:07;;;;;;;13.83;12.53;;;25.30;1.00;;;;;;5071055;28;20664;-56
2021/06/26 08:25:34;;;;;;;13.07;11.97;;;25.60;1.00;;;;;;5070961;28;20566;-58
2021/06/26 08:28:00;;;;;;;11.70;10.63;;;25.80;1.00;;;;;;5070612;28;20423;-56
2021/06/26 08:30:26;;;;;;;12.57;11.53;;;26.10;1.00;;;;;;5070444;28;20436;-57
2021/06/26 08:32:52;;;;;;;12.73;11.63;;;26.10;1.00;;;;;;5068903;28;20540;-56
2021/06/26 08:35:17;;;;;;;11.00;10.00;;;25.90;1.00;;;;;;5069900;28;20672;-57
2021/06/26 08:37:44;;;;;;;10.00;9.00;;;26.00;1.00;;;;;;5070007;28;20428;-56
2021/06/26 08:40:11;;;;;;;10.10;9.10;;;26.30;1.00;;;;;;5070458;28;20207;-56
2021/06/26 08:42:37;;;;;;;11.90;10.70;;;26.60;1.00;;;;;;5070848;28;20416;-57
2021/06/26 08:45:08;;;;;;;10.07;9.20;;;26.50;1.00;;;;;;5070645;28;20446;-56
2021/06/26 08:47:34;;;;;;;10.13;9.20;;;26.70;1.00;;;;;;5068182;28;20195;-59
2021/06/26 08:50:00;;;;;;;10.37;9.57;;;26.70;1.00;;;;;;5070079;28;20449;-57
2021/06/26 08:52:25;;;;;;;9.77;8.87;;;26.50;1.00;;;;;;5070136;28;20598;-58
2021/06/26 08:54:52;;;;;;;11.50;10.50;;;26.60;1.00;;;;;;5070261;28;20241;-55
2021/06/26 08:57:39;;;;;;;10.10;9.30;;;26.40;1.00;;;;;;5070502;28;20195;-55
2021/06/26 09:00:14;;;;;;;12.00;11.00;;;26.20;1.00;;;;;;5070238;28;20519;-58
2021/06/26 09:02:40;;;;;;;11.50;10.50;;;26.40;1.00;;;;;;5069106;28;20873;-56
2021/06/26 09:05:08;;;;;;;8.87;8.17;;;26.30;1.00;;;;;;5069683;28;20432;-56
2021/06/26 09:07:39;;;;;;;9.20;8.30;;;26.60;1.00;;;;;;5070352;28;20445;-58
2021/06/26 09:10:16;;;;;;;9.60;8.20;;;27.20;1.00;;;;;;5070048;28;20492;-57
2021/06/26 09:12:43;;;;;;;10.60;9.67;;;27.50;1.00;;;;;;5070667;28;20437;-57
2021/06/26 09:15:10;;;;;;;11.63;9.10;;;27.60;1.00;;;;;;5070010;28;20445;-56
2021/06/26 09:17:36;;;;;;;9.10;8.40;;;27.40;1.00;;;;;;5069463;28;20484;-57
2021/06/26 09:20:07;;;;;;;8.83;8.00;;;27.00;1.00;;;;;;5070415;28;20939;-55
2021/06/26 09:22:44;;;;;;;10.17;9.30;;;26.60;1.00;;;;;;5069943;28;20804;-58
2021/06/26 09:25:29;;;;;;;10.27;9.27;;;26.50;1.00;;;;;;5068953;28;20518;-58
2021/06/26 09:27:55;;;;;;;9.60;8.80;;;26.20;1.00;;;;;;5069359;28;20434;-57
2021/06/26 09:30:37;;;;;;;10.43;9.10;;;26.10;1.00;;;;;;5069972;28;20436;-58
2021/06/26 09:33:17;;;;;;;10.77;9.70;;;25.80;1.00;;;;;;5067812;28;20445;-57
2021/06/26 09:35:59;;;;;;;10.17;9.00;;;25.60;1.00;;;;;;5069482;28;20477;-56
2021/06/26 09:38:25;;;;;;;11.97;9.70;;;25.30;1.00;;;;;;5069987;28;20433;-57
2021/06/26 09:40:51;;;;;;;10.37;9.50;;;24.90;1.00;;;;;;5069544;28;20456;-60
2021/06/26 09:43:28;;;;;;;10.60;9.60;;;24.70;1.00;;;;;;5066593;28;20563;-62
2021/06/26 09:46:12;;;;;;;9.63;8.83;;;26.40;1.00;;;;;;5067536;28;20211;-61
2021/06/26 09:48:54;;;;;;;9.50;8.70;;;25.20;1.00;;;;;;5069650;28;20424;-60
2021/06/26 09:51:30;;;;;;;11.43;10.53;;;25.40;1.00;;;;;;5069839;28;20448;-60
2021/06/26 09:54:04;;;;;;;11.20;10.10;;;25.60;1.00;;;;;;5069272;28;20835;-61
2021/06/26 09:56:44;;;;;;;11.20;10.10;;;25.60;1.00;;;;;;5066770;28;20444;-61
2021/06/26 09:59:11;;;;;;;11.00;9.10;;;25.30;1.00;;;;;;5067488;28;20416;-60
2021/06/26 10:01:44;;;;;;;9.70;8.80;;;25.30;1.00;;;;;;5068351;28;20431;-60
2021/06/26 10:04:15;;;;;;;9.60;8.70;;;25.60;1.00;;;;;;5071117;28;20481;-61
2021/06/26 10:06:43;;;;;;;10.87;9.80;;;25.20;1.00;;;;;;5069319;28;20412;-61
2021/06/26 10:09:09;;;;;;;10.10;9.13;;;25.30;1.00;;;;;;5069037;28;20931;-60
2021/06/26 10:11:36;;;;;;;9.07;8.27;;;25.50;1.00;;;;;;5068683;28;20488;-60
2021/06/26 10:14:06;;;;;;;10.10;9.20;;;25.50;1.00;;;;;;5069029;28;20444;-60
2021/06/26 10:16:32;;;;;;;9.20;8.03;;;25.60;1.00;;;;;;5069987;28;20433;-60
2021/06/26 10:19:03;;;;;;;8.53;7.63;;;25.80;1.00;;;;;;5068932;28;20461;-61
2021/06/26 10:21:30;;;;;;;8.00;7.40;;;26.20;1.00;;;;;;5069221;28;20412;-60
2021/06/26 10:23:58;;;;;;;7.80;7.20;;;26.40;1.00;;;;;;5069185;28;20796;-61
2021/06/26 10:26:24;;;;;;;9.07;8.17;;;26.20;1.00;;;;;;5067398;28;20441;-59
2021/06/26 10:28:54;;;;;;;8.60;7.67;;;26.20;1.00;;;;;;5065520;28;20501;-60
2021/06/26 10:31:34;;;;;;;8.47;7.67;;;26.20;1.00;;;;;;5064130;28;20509;-62
2021/06/26 10:34:26;;;;;;;8.90;8.10;;;25.90;1.00;;;;;;5069200;28;21021;-63
2021/06/26 10:36:54;;;;;;;8.03;7.43;;;25.90;1.00;;;;;;5056964;28;20416;-61
2021/06/26 10:39:30;;;;;;;7.63;7.03;;;25.80;1.00;;;;;;5068392;28;20518;-62
2021/06/26 10:42:05;;;;;;;8.70;8.00;;;25.80;1.00;;;;;;5067731;28;20932;-62
2021/06/26 10:44:50;;;;;;;10.13;9.20;;;25.90;1.00;;;;;;5072577;28;21140;-61
2021/06/26 10:47:39;;;;;;;10.00;9.20;;;26.30;1.00;;;;;;5072799;28;20441;-61
2021/06/26 10:50:15;;;;;;;9.50;8.70;;;26.60;1.00;;;;;;5072445;28;20444;-63
2021/06/26 10:53:07;;;;;;;8.87;8.07;;;26.90;1.00;;;;;;5069413;28;20645;-62
2021/06/26 10:55:34;;;;;;;9.63;8.93;;;27.10;1.00;;;;;;5062469;28;20485;-63
2021/06/26 10:58:02;;;;;;;10.43;9.53;;;26.80;1.00;;;;;;5072714;28;20487;-61
2021/06/26 11:00:33;;;;;;;10.67;9.50;;;26.40;1.00;;;;;;5065847;28;20948;-61
2021/06/26 11:03:00;;;;;;;10.57;9.57;;;25.90;1.00;;;;;;5070683;28;20416;-61
2021/06/26 11:05:31;;;;;;;11.43;10.33;;;27.70;1.00;;;;;;5071002;28;20475;-64
2021/06/26 11:07:57;;;;;;;10.03;9.23;;;24.60;1.00;;;;;;5068276;28;20444;-60
2021/06/26 11:10:22;;;;;;;10.93;10.03;;;24.60;1.00;;;;;;5071812;28;20420;-61
2021/06/26 11:12:49;;;;;;;9.30;8.50;;;24.70;1.00;;;;;;5070299;28;20457;-61
2021/06/26 11:15:24;;;;;;;10.90;9.00;;;24.30;1.00;;;;;;5069151;28;20179;-62
2021/06/26 11:17:49;;;;;;;11.20;10.10;;;24.20;1.00;;;;;;5069679;28;20416;-61
2021/06/26 11:20:18;;;;;;;11.20;10.30;;;23.90;1.00;;;;;;5068467;28;20470;-60
2021/06/26 11:23:01;;;;;;;11.67;10.63;;;23.20;1.00;;;;;;5071742;28;20538;-61
2021/06/26 11:25:31;;;;;;;12.80;11.60;;;22.60;1.00;;;;;;5065211;28;20507;-62
2021/06/26 11:28:16;;;;;;;14.37;13.00;;;22.40;1.00;;;;;;5070428;28;20487;-60
2021/06/26 11:30:45;;;;;;;14.43;13.00;;;22.60;1.00;;;;;;5069680;28;20834;-60
2021/06/26 11:33:11;;;;;;;13.40;12.13;;;23.10;1.00;;;;;;5069704;28;20460;-60
2021/06/26 11:35:42;;;;;;;19.40;17.30;;;23.60;1.00;;;;;;5071454;28;20735;-60
2021/06/26 11:38:15;;;;;;;16.83;15.03;;;24.10;1.00;;;;;;5057208;28;20195;-60
2021/06/26 11:40:41;;;;;;;16.60;14.87;;;24.40;1.00;;;;;;5068965;28;20424;-60
2021/06/26 11:43:07;;;;;;;14.10;12.70;;;24.60;1.00;;;;;;5070080;28;20994;-61
2021/06/26 11:45:38;;;;;;;13.97;12.67;;;24.90;1.00;;;;;;5069349;28;21482;-61
2021/06/26 11:48:14;;;;;;;13.50;12.40;;;25.10;1.00;;;;;;5070146;28;20176;-61
2021/06/26 11:50:53;;;;;;;13.37;12.17;;;25.20;1.00;;;;;;5069884;28;20412;-62
2021/06/26 11:53:22;;;;;;;13.40;12.20;;;25.30;1.00;;;;;;5068607;28;20840;-61
2021/06/26 11:55:56;;;;;;;13.10;11.90;;;25.10;1.00;;;;;;5071286;28;20416;-61
2021/06/26 11:58:23;;;;;;;11.47;10.47;;;24.80;1.00;;;;;;5066261;28;20550;-62
2021/06/26 12:01:02;;;;;;;10.27;9.33;;;24.60;1.00;;;;;;5070911;28;20474;-61
2021/06/26 12:03:30;;;;;;;8.27;7.63;;;24.60;1.00;;;;;;5068209;28;20442;-60
2021/06/26 12:06:04;;;;;;;7.67;7.07;;;24.60;1.00;;;;;;5065414;28;20496;-62
2021/06/26 12:08:39;;;;;;;8.70;8.00;;;24.70;1.00;;;;;;5068865;28;20950;-62
2021/06/26 12:11:05;;;;;;;8.27;7.60;;;24.60;1.00;;;;;;5068989;28;20981;-62
2021/06/26 12:13:31;;;;;;;7.90;7.30;;;24.50;1.00;;;;;;5070912;28;20465;-61
2021/06/26 12:15:56;;;;;;;7.40;6.80;;;24.40;1.00;;;;;;5066378;28;20656;-61
2021/06/26 12:18:22;;;;;;;6.87;6.30;;;24.50;1.00;;;;;;5071045;28;20266;-61
2021/06/26 12:20:47;;;;;;;7.40;6.80;;;24.60;1.00;;;;;;5068436;28;20183;-62
2021/06/26 12:23:13;;;;;;;7.33;6.73;;;24.60;1.00;;;;;;5070388;28;20179;-61
2021/06/26 12:25:44;;;;;;;8.10;7.50;;;24.70;1.00;;;;;;5066848;28;20290;-62
2021/06/26 12:28:10;;;;;;;6.90;6.40;;;24.80;1.00;;;;;;5067940;28;20404;-63
2021/06/26 12:30:41;;;;;;;7.90;7.30;;;24.70;1.00;;;;;;5069751;28;20464;-60
2021/06/26 12:33:13;;;;;;;8.57;7.97;;;24.80;1.00;;;;;;5068859;28;20472;-61
2021/06/26 12:35:39;;;;;;;7.97;7.27;;;25.10;1.00;;;;;;5068887;28;20987;-61
2021/06/26 12:38:06;;;;;;;7.43;6.80;;;25.20;1.00;;;;;;5066105;28;20450;-61
2021/06/26 12:40:42;;;;;;;7.20;6.70;;;25.50;1.00;;;;;;5069689;28;20449;-63
2021/06/26 12:43:10;;;;;;;8.30;7.63;;;26.10;1.00;;;;;;5070440;28;20419;-61
2021/06/26 12:45:51;;;;;;;7.07;6.47;;;26.60;1.00;;;;;;5070323;28;20520;-61
2021/06/26 12:48:29;;;;;;;6.70;6.10;;;27.40;1.00;;;;;;5069077;28;20942;-62
2021/06/26 12:51:04;;;;;;;6.37;5.37;;;27.90;1.00;;;;;;5066669;28;20441;-62
2021/06/26 12:53:32;;;;;;;5.27;4.87;;;28.30;1.00;;;;;;5068788;28;20900;-61